Time;durP1;ratioP1;P1;durP2;ratioP2;P2;SDS_P1;SDS_P2;PMS_P1;PMS_P2;Temp;Humidity;BMP_temperature;BMP_pressure;BME280_temperature;BME280_humidity;BME280_pressure;Samples;Min_cycle;Max_cycle;Signal;HPM_P1;HPM_P2
2023/04/28 00:00:03;;;;;;;19.13;11.73;;;;;;;7.55;50.87;100799.81;5008352;28;20199;-65
2023/04/28 00:02:30;;;;;;;20.03;10.60;;;;;;;7.51;51.62;100798.94;5010463;28;20204;-64
2023/04/28 00:05:00;;;;;;;18.10;10.33;;;;;;;7.50;51.54;100792.09;5012043;28;20203;-65
2023/04/28 00:07:28;;;;;;;20.07;10.33;;;;;;;7.45;51.31;100789.47;5012795;28;20707;-63
2023/04/28 00:09:56;;;;;;;19.70;10.40;;;;;;;7.40;51.63;100796.25;5002884;28;20223;-66
2023/04/28 00:12:24;;;;;;;16.30;10.43;;;;;;;7.34;51.36;100791.03;5010591;28;20207;-64
2023/04/28 00:14:52;;;;;;;19.60;10.73;;;;;;;7.32;51.72;100785.00;5013500;28;20273;-66
2023/04/28 00:17:20;;;;;;;20.57;10.47;;;;;;;7.30;51.24;100796.09;5014529;28;20659;-65
2023/04/28 00:19:48;;;;;;;14.13;10.17;;;;;;;7.28;51.57;100796.06;5013381;28;20198;-64
2023/04/28 00:22:18;;;;;;;13.67;9.30;;;;;;;7.27;52.01;100796.91;5000416;28;20211;-65
2023/04/28 00:24:46;;;;;;;29.97;10.40;;;;;;;7.26;52.15;100806.31;5014134;28;20718;-65
2023/04/28 00:27:14;;;;;;;17.07;10.33;;;;;;;7.23;52.68;100802.84;5011091;28;20203;-64
2023/04/28 00:29:43;;;;;;;17.27;9.87;;;;;;;7.23;52.10;100802.84;5011030;28;20219;-65
2023/04/28 00:32:12;;;;;;;17.10;9.33;;;;;;;7.23;52.05;100803.69;5013600;28;20199;-63
2023/04/28 00:34:40;;;;;;;19.87;9.30;;;;;;;7.26;52.94;100805.44;5000155;28;20246;-64
2023/04/28 00:37:08;;;;;;;18.23;9.57;;;;;;;7.26;51.99;100803.75;5014218;28;20577;-67
2023/04/28 00:39:37;;;;;;;15.10;8.87;;;;;;;7.28;52.12;100805.47;5010306;28;20820;-64
2023/04/28 00:42:05;;;;;;;14.27;9.73;;;;;;;7.28;52.40;100813.16;5011311;28;20199;-65
2023/04/28 00:44:33;;;;;;;16.53;9.00;;;;;;;7.25;52.00;100802.03;5004924;28;20231;-64
2023/04/28 00:47:01;;;;;;;19.13;10.07;;;;;;;7.15;52.30;100795.03;5008699;28;20211;-63
2023/04/28 00:49:30;;;;;;;13.93;8.67;;;;;;;7.13;52.11;100801.84;5010199;28;20581;-64
2023/04/28 00:52:02;;;;;;;15.20;9.33;;;;;;;7.03;52.56;100799.97;5013302;28;20206;-64
2023/04/28 00:54:30;;;;;;;18.40;10.30;;;;;;;6.99;52.75;100804.19;5013773;28;20623;-66
2023/04/28 00:57:02;;;;;;;16.97;10.30;;;;;;;6.95;53.49;100796.44;5006192;28;20564;-68
2023/04/28 00:59:29;;;;;;;17.67;11.07;;;;;;;6.92;53.24;100799.84;5009787;28;20207;-63
2023/04/28 01:01:59;;;;;;;20.07;10.67;;;;;;;6.92;53.23;100801.50;5006564;28;20241;-65
2023/04/28 01:04:29;;;;;;;19.87;10.30;;;;;;;6.85;53.10;100802.25;5007188;28;20555;-65
2023/04/28 01:07:00;;;;;;;18.67;11.03;;;;;;;6.83;53.36;100803.94;5009406;28;20224;-65
2023/04/28 01:09:28;;;;;;;17.67;10.50;;;;;;;6.82;53.91;100809.91;5008524;28;20211;-65
2023/04/28 01:11:57;;;;;;;15.50;10.17;;;;;;;6.80;53.99;100806.44;5011422;28;20207;-65
2023/04/28 01:14:26;;;;;;;19.23;10.50;;;;;;;6.81;54.17;100818.41;5012308;28;20207;-64
2023/04/28 01:16:54;;;;;;;18.57;10.67;;;;;;;6.83;54.03;100816.75;5011265;28;20195;-66
2023/04/28 01:19:23;;;;;;;19.17;9.93;;;;;;;6.82;54.64;100815.03;5013074;28;20204;-63
2023/04/28 01:21:51;;;;;;;20.33;11.07;;;;;;;6.80;54.26;100811.56;5010191;28;20214;-65
2023/04/28 01:24:21;;;;;;;18.77;10.47;;;;;;;6.84;53.97;100813.34;5012112;28;20227;-66
2023/04/28 01:26:49;;;;;;;18.77;11.50;;;;;;;6.85;54.31;100809.94;5013140;28;20199;-65
2023/04/28 01:29:17;;;;;;;17.77;10.93;;;;;;;6.82;54.45;100805.63;5012306;28;20995;-64
2023/04/28 01:31:45;;;;;;;21.20;10.97;;;;;;;6.80;53.96;100812.44;5012597;28;20226;-67
2023/04/28 01:34:13;;;;;;;20.23;10.57;;;;;;;6.78;54.21;100819.25;5010854;28;20323;-66
2023/04/28 01:36:41;;;;;;;15.33;10.30;;;;;;;6.78;54.84;100814.13;5011994;28;20282;-65
2023/04/28 01:39:09;;;;;;;21.53;10.83;;;;;;;6.77;54.65;100818.38;5009219;28;20199;-64
2023/04/28 01:41:39;;;;;;;17.70;10.73;;;;;;;6.75;54.39;100820.03;5011534;28;20211;-65
2023/04/28 01:44:06;;;;;;;18.50;10.57;;;;;;;6.75;54.65;100824.31;5010876;28;20207;-64
2023/04/28 01:46:35;;;;;;;21.73;11.87;;;;;;;6.72;54.90;100830.22;5007109;28;20200;-65
2023/04/28 01:49:03;;;;;;;19.23;11.53;;;;;;;6.70;54.75;100821.69;5006645;28;20253;-66
2023/04/28 01:51:31;;;;;;;17.53;11.27;;;;;;;6.67;55.57;100819.06;5007492;28;20246;-65
2023/04/28 01:53:59;;;;;;;16.73;11.30;;;;;;;6.67;54.65;100826.75;5011969;28;20204;-64
2023/04/28 01:56:27;;;;;;;17.13;10.43;;;;;;;6.69;55.57;100829.31;5007066;28;20211;-64
2023/04/28 01:58:56;;;;;;;16.87;10.07;;;;;;;6.69;55.14;100825.06;5011355;28;20203;-65
2023/04/28 02:01:24;;;;;;;21.63;11.87;;;;;;;6.70;55.32;100826.81;5007606;28;20200;-65
2023/04/28 02:03:53;;;;;;;22.67;11.90;;;;;;;6.68;55.37;100819.91;5010610;28;20358;-64
2023/04/28 02:06:22;;;;;;;20.87;11.57;;;;;;;6.62;55.14;100828.34;5008701;28;20195;-65
2023/04/28 02:08:50;;;;;;;18.00;11.27;;;;;;;6.61;55.65;100824.06;5011123;28;20199;-64
2023/04/28 02:11:18;;;;;;;21.27;11.20;;;;;;;6.62;55.68;100818.09;5002870;28;20216;-64
2023/04/28 02:13:45;;;;;;;16.10;11.20;;;;;;;6.63;55.30;100824.09;5009593;28;20234;-64
2023/04/28 02:16:15;;;;;;;15.87;11.20;;;;;;;6.61;55.45;100821.50;5008190;28;20215;-65
2023/04/28 02:18:43;;;;;;;22.43;11.07;;;;;;;6.62;55.33;100819.81;5009182;28;20228;-64
2023/04/28 02:21:12;;;;;;;19.27;11.40;;;;;;;6.61;55.41;100818.94;5012082;28;20219;-65
2023/04/28 02:23:40;;;;;;;19.60;11.23;;;;;;;6.60;55.12;100813.81;5011413;28;20238;-65
2023/04/28 02:26:08;;;;;;;18.53;11.47;;;;;;;6.58;55.25;100821.44;5009798;28;20196;-64
2023/04/28 02:28:36;;;;;;;21.13;10.93;;;;;;;6.55;55.54;100821.41;5010385;28;20289;-65
2023/04/28 02:31:05;;;;;;;18.00;11.33;;;;;;;6.53;55.50;100820.53;5009509;28;20305;-66
2023/04/28 02:33:35;;;;;;;20.33;11.17;;;;;;;6.46;55.69;100817.00;5011871;28;20460;-64
2023/04/28 02:36:04;;;;;;;18.90;10.87;;;;;;;6.42;55.81;100827.16;5011588;28;20668;-70
2023/04/28 02:38:32;;;;;;;19.27;11.17;;;;;;;6.38;55.71;100823.69;5011545;28;20207;-63
2023/04/28 02:41:00;;;;;;;19.90;10.80;;;;;;;6.34;55.92;100821.03;5010780;28;20195;-64
2023/04/28 02:43:29;;;;;;;16.17;11.60;;;;;;;6.29;56.05;100821.78;5010284;28;20239;-69
2023/04/28 02:45:57;;;;;;;15.80;10.63;;;;;;;6.24;56.47;100825.97;5006639;28;20250;-65
2023/04/28 02:48:25;;;;;;;17.23;11.50;;;;;;;6.19;56.65;100832.72;5008103;28;20254;-65
2023/04/28 02:50:55;;;;;;;19.17;11.43;;;;;;;6.16;57.20;100826.69;5009696;28;20613;-63
2023/04/28 02:53:23;;;;;;;18.30;11.63;;;;;;;6.19;57.36;100825.03;5008987;28;20203;-64
2023/04/28 02:55:51;;;;;;;22.17;11.33;;;;;;;6.23;56.91;100829.38;5011180;28;20203;-64
2023/04/28 02:58:18;;;;;;;20.07;11.23;;;;;;;6.25;57.10;100822.56;5009636;28;20249;-65
2023/04/28 03:00:47;;;;;;;19.30;11.00;;;;;;;6.26;57.01;100829.44;5007204;28;20262;-65
2023/04/28 03:03:15;;;;;;;19.57;10.87;;;;;;;6.26;57.06;100828.59;5008874;28;20207;-65
2023/04/28 03:05:43;;;;;;;18.83;11.23;;;;;;;6.28;56.83;100827.75;5010432;28;20233;-64
2023/04/28 03:08:12;;;;;;;20.80;11.33;;;;;;;6.30;57.06;100830.34;5004600;28;20242;-65
2023/04/28 03:10:40;;;;;;;17.17;10.73;;;;;;;6.34;57.06;100831.28;5013065;28;20199;-66
2023/04/28 03:13:08;;;;;;;17.00;11.13;;;;;;;6.36;56.37;100830.44;5005883;28;20204;-64
2023/04/28 03:15:36;;;;;;;20.20;10.93;;;;;;;6.38;56.69;100826.22;5006294;28;20215;-68
2023/04/28 03:18:04;;;;;;;18.47;11.13;;;;;;;6.41;56.24;100835.69;5010651;28;20686;-69
2023/04/28 03:20:32;;;;;;;19.37;10.93;;;;;;;6.39;55.99;100840.75;5004648;28;20203;-68
2023/04/28 03:23:00;;;;;;;15.80;10.87;;;;;;;6.36;56.20;100834.72;5008893;28;20650;-68
2023/04/28 03:25:30;;;;;;;18.63;10.97;;;;;;;6.36;56.52;100842.38;5006490;28;20553;-71
2023/04/28 03:27:58;;;;;;;17.90;12.13;;;;;;;6.32;56.44;100845.72;5011217;28;20590;-69
2023/04/28 03:30:26;;;;;;;18.07;11.30;;;;;;;6.31;56.70;100841.44;5010313;28;20309;-69
2023/04/28 03:32:54;;;;;;;24.93;11.53;;;;;;;6.27;56.28;100838.81;5010233;28;20211;-69
2023/04/28 03:35:22;;;;;;;17.70;11.20;;;;;;;6.23;56.36;100834.50;5008525;28;20651;-68
2023/04/28 03:37:50;;;;;;;20.20;11.43;;;;;;;6.20;56.67;100842.09;5004950;28;20211;-69
2023/04/28 03:40:18;;;;;;;19.50;11.17;;;;;;;6.22;56.53;100845.56;5013701;28;20223;-69
2023/04/28 03:42:47;;;;;;;22.03;11.43;;;;;;;6.24;56.58;100841.31;5013598;28;20195;-70
2023/04/28 03:45:15;;;;;;;21.20;11.10;;;;;;;6.26;56.76;100833.69;5012413;28;20207;-69
2023/04/28 03:47:43;;;;;;;17.30;10.63;;;;;;;6.27;56.78;100836.28;5013024;28;20662;-68
2023/04/28 03:50:11;;;;;;;17.23;10.33;;;;;;;6.35;56.59;100843.22;5011070;28;20203;-72
2023/04/28 03:52:39;;;;;;;17.10;11.20;;;;;;;6.39;56.26;100834.78;5009379;28;20238;-68
2023/04/28 03:55:08;;;;;;;18.73;10.90;;;;;;;6.42;56.19;100837.38;5012771;28;20203;-69
2023/04/28 03:57:36;;;;;;;22.23;12.43;;;;;;;6.49;56.68;100844.34;5011260;28;20203;-70
2023/04/28 04:00:06;;;;;;;21.27;11.80;;;;;;;6.56;56.05;100837.66;5011721;28;20208;-70
2023/04/28 04:02:34;;;;;;;17.70;11.20;;;;;;;6.61;56.35;100843.69;5004287;28;20216;-68
2023/04/28 04:05:02;;;;;;;25.33;12.00;;;;;;;6.62;56.03;100841.16;5012773;28;20682;-71
2023/04/28 04:07:31;;;;;;;20.23;11.13;;;;;;;6.66;56.29;100848.03;5011721;28;20214;-71
2023/04/28 04:09:59;;;;;;;17.90;10.93;;;;;;;6.68;56.08;100838.69;5009494;28;20207;-72
2023/04/28 04:12:30;;;;;;;21.13;11.30;;;;;;;6.75;55.82;100848.22;5018086;28;20705;-69
2023/04/28 04:14:57;;;;;;;18.23;11.00;;;;;;;6.80;55.68;100850.00;5011111;28;20243;-69
2023/04/28 04:17:27;;;;;;;20.13;10.47;;;;;;;6.81;55.52;100847.44;5012821;28;20238;-71
2023/04/28 04:19:55;;;;;;;22.50;12.20;;;;;;;6.89;55.51;100853.56;5012177;28;20207;-69
2023/04/28 04:22:23;;;;;;;18.97;10.70;;;;;;;6.97;55.76;100853.69;5000259;28;20259;-68
2023/04/28 04:24:50;;;;;;;17.87;10.97;;;;;;;7.06;55.50;100861.50;5006408;28;20707;-69
2023/04/28 04:27:19;;;;;;;23.90;12.23;;;;;;;7.10;55.33;100859.88;5013381;28;20212;-69
2023/04/28 04:29:47;;;;;;;15.63;10.60;;;;;;;7.09;55.07;100863.28;5012529;28;20606;-71
2023/04/28 04:32:15;;;;;;;22.67;11.53;;;;;;;7.12;54.99;100858.19;5003641;28;20231;-70
2023/04/28 04:34:44;;;;;;;18.60;10.37;;;;;;;7.22;54.79;100860.06;5010330;28;20614;-69
2023/04/28 04:37:12;;;;;;;25.87;11.70;;;;;;;7.36;54.30;100855.97;5011943;28;20280;-70
2023/04/28 04:39:40;;;;;;;19.13;11.37;;;;;;;7.48;54.15;100860.44;5012408;28;20203;-72
2023/04/28 04:42:08;;;;;;;16.87;10.73;;;;;;;7.57;54.52;100863.13;5007994;28;20630;-70
2023/04/28 04:44:51;;;;;;;19.47;11.13;;;;;;;7.70;53.76;100862.47;5000785;28;20203;-69
2023/04/28 04:47:19;;;;;;;19.27;11.40;;;;;;;7.81;52.41;100857.47;5003976;28;20219;-70
2023/04/28 04:49:49;;;;;;;20.70;11.50;;;;;;;7.90;52.50;100859.28;5003189;28;20219;-68
2023/04/28 04:52:17;;;;;;;21.53;11.60;;;;;;;8.01;51.89;100864.56;5011060;28;20223;-69
2023/04/28 04:54:46;;;;;;;18.00;11.07;;;;;;;8.10;52.05;100867.22;5009964;28;20211;-71
2023/04/28 04:57:14;;;;;;;18.77;11.23;;;;;;;8.12;51.57;100860.41;5008091;28;20214;-68
2023/04/28 04:59:42;;;;;;;19.67;11.87;;;;;;;8.21;50.93;100866.53;5010593;28;20226;-70
2023/04/28 05:02:10;;;;;;;20.60;11.80;;;;;;;8.32;51.08;100871.78;5002440;28;20214;-74
2023/04/28 05:04:38;;;;;;;19.13;12.50;;;;;;;8.39;51.34;100865.00;5007728;28;20731;-71
2023/04/28 05:07:07;;;;;;;19.37;10.80;;;;;;;8.39;50.24;100868.44;5002305;28;20207;-70
2023/04/28 05:09:35;;;;;;;22.27;11.60;;;;;;;8.43;50.35;100866.75;5010096;28;20216;-74
2023/04/28 05:12:04;;;;;;;20.33;12.47;;;;;;;8.50;50.31;100871.09;5011771;28;20223;-71
2023/04/28 05:14:32;;;;;;;17.63;11.03;;;;;;;8.62;50.76;100871.25;5009124;28;20203;-71
2023/04/28 05:17:00;;;;;;;24.53;12.00;;;;;;;8.76;50.16;100870.50;5010539;28;20218;-71
2023/04/28 05:19:28;;;;;;;22.03;11.30;;;;;;;8.89;50.11;100873.19;5008872;28;20203;-70
2023/04/28 05:21:56;;;;;;;15.80;12.10;;;;;;;9.00;49.46;100872.44;5011852;28;20207;-70
2023/04/28 05:24:26;;;;;;;17.73;11.07;;;;;;;9.10;49.25;100875.09;5011509;28;20305;-71
2023/04/28 05:26:54;;;;;;;17.00;11.20;;;;;;;9.24;48.27;100875.19;5013180;28;20199;-72
2023/04/28 05:29:22;;;;;;;17.67;11.53;;;;;;;9.37;48.99;100866.72;5013282;28;20569;-69
2023/04/28 05:31:50;;;;;;;19.47;11.47;;;;;;;9.51;48.23;100866.81;5012661;28;20207;-71
2023/04/28 05:34:18;;;;;;;15.47;11.63;;;;;;;9.65;47.68;100870.31;5012813;28;20253;-70
2023/04/28 05:36:46;;;;;;;19.00;11.90;;;;;;;9.84;47.73;100871.25;5006413;28;20654;-71
2023/04/28 05:39:14;;;;;;;19.33;11.83;;;;;;;9.99;47.42;100865.31;5008515;28;20204;-71
2023/04/28 05:41:43;;;;;;;18.13;12.47;;;;;;;10.24;46.77;100865.41;5010535;28;20261;-71
2023/04/28 05:44:11;;;;;;;17.50;11.13;;;;;;;10.42;45.79;100873.22;5007838;28;20552;-72
2023/04/28 05:46:40;;;;;;;16.77;10.80;;;;;;;10.55;44.62;100869.81;5008464;28;20208;-73
2023/04/28 05:49:08;;;;;;;19.07;11.30;;;;;;;10.68;44.93;100865.53;5004773;28;20299;-73
2023/04/28 05:51:37;;;;;;;15.93;11.13;;;;;;;10.81;44.43;100871.56;5005027;28;20206;-72
2023/04/28 05:54:05;;;;;;;15.70;10.13;;;;;;;10.87;43.39;100875.00;5004181;28;20233;-71
2023/04/28 05:56:33;;;;;;;20.57;10.83;;;;;;;10.94;43.14;100872.44;5006457;28;20545;-70
2023/04/28 05:59:03;;;;;;;21.47;10.97;;;;;;;11.03;42.42;100878.44;5009208;28;20697;-71
2023/04/28 06:01:32;;;;;;;19.30;10.80;;;;;;;11.21;42.70;100876.72;5006749;28;20208;-70
2023/04/28 06:04:00;;;;;;;14.20;10.33;;;;;;;11.40;42.05;100870.66;5008819;28;20684;-70
2023/04/28 06:06:28;;;;;;;19.27;11.43;;;;;;;11.62;42.20;100884.38;5003332;28;20251;-72
2023/04/28 06:08:56;;;;;;;14.70;10.70;;;;;;;11.78;41.78;100869.69;5009785;28;20305;-70
2023/04/28 06:11:24;;;;;;;14.63;9.53;;;;;;;11.89;41.14;100867.13;5008082;28;20258;-73
2023/04/28 06:13:52;;;;;;;14.23;9.73;;;;;;;12.08;40.53;100869.63;5012248;28;20215;-71
2023/04/28 06:16:22;;;;;;;25.30;10.00;;;;;;;12.20;39.93;100875.63;5012329;28;20207;-72
2023/04/28 06:18:50;;;;;;;18.40;10.10;;;;;;;12.19;39.19;100876.50;5012052;28;20218;-71
2023/04/28 06:21:20;;;;;;;18.63;9.70;;;;;;;12.24;39.50;100877.31;5012264;28;20204;-71
2023/04/28 06:23:48;;;;;;;16.07;8.97;;;;;;;12.28;38.93;100871.25;5007312;28;20227;-70
2023/04/28 06:26:16;;;;;;;13.67;9.13;;;;;;;12.37;38.95;100876.38;5005817;28;20207;-70
2023/04/28 06:28:45;;;;;;;16.97;9.53;;;;;;;12.52;38.98;100873.72;5011762;28;20242;-71
2023/04/28 06:31:13;;;;;;;12.77;8.77;;;;;;;12.71;38.89;100876.19;5012081;28;20670;-76
2023/04/28 06:33:43;;;;;;;10.93;7.50;;;;;;;12.85;37.83;100868.28;5012082;28;20347;-71
2023/04/28 06:36:12;;;;;;;13.93;8.03;;;;;;;12.98;37.25;100877.69;5007829;28;20670;-70
2023/04/28 06:38:41;;;;;;;14.77;8.20;;;;;;;13.10;36.71;100874.97;5008256;28;20214;-72
2023/04/28 06:41:10;;;;;;;16.43;8.10;;;;;;;13.25;36.74;100868.84;5009033;28;20207;-74
2023/04/28 06:43:39;;;;;;;15.47;8.70;;;;;;;13.39;36.41;100872.16;5008702;28;20200;-73
2023/04/28 06:46:07;;;;;;;9.13;6.80;;;;;;;13.51;36.24;100877.25;5009832;28;20204;-70
2023/04/28 06:48:35;;;;;;;15.70;6.47;;;;;;;13.50;35.19;100865.16;5009905;28;20218;-72
2023/04/28 06:51:05;;;;;;;12.87;6.27;;;;;;;13.67;35.07;100877.06;5007554;28;20635;-71
2023/04/28 06:53:33;;;;;;;10.73;5.93;;;;;;;13.77;34.45;100873.47;5011149;28;20309;-71
2023/04/28 06:56:01;;;;;;;8.13;4.90;;;;;;;13.89;34.35;100875.09;5008882;28;20257;-72
2023/04/28 06:58:29;;;;;;;8.63;5.73;;;;;;;14.02;33.44;100881.81;5009684;28;20203;-71
2023/04/28 07:00:57;;;;;;;9.97;5.93;;;;;;;14.02;33.15;100869.72;5005138;28;20258;-71
2023/04/28 07:03:26;;;;;;;9.13;5.30;;;;;;;14.13;32.76;100881.69;5003579;28;20217;-71
2023/04/28 07:05:55;;;;;;;7.90;4.53;;;;;;;14.21;31.98;100877.25;5009730;28;20203;-73
2023/04/28 07:08:24;;;;;;;6.77;4.13;;;;;;;14.61;32.20;100868.97;5005504;28;20203;-75
2023/04/28 07:10:53;;;;;;;5.53;4.03;;;;;;;16.53;29.08;100868.81;5005993;28;20294;-73
2023/04/28 07:13:21;;;;;;;5.65;3.60;;;;;;;18.69;26.23;100863.81;5004359;28;20226;-72
2023/04/28 07:15:49;;;;;;;4.03;3.22;;;;;;;20.79;23.41;100851.03;5004275;28;20203;-72
2023/04/28 07:18:17;;;;;;;6.85;3.63;;;;;;;22.48;21.09;100846.19;5003772;28;20537;-73
2023/04/28 07:20:45;;;;;;;8.32;4.20;;;;;;;23.69;19.30;100850.63;5007420;28;20223;-75
2023/04/28 07:23:13;;;;;;;7.00;4.25;;;;;;;24.29;18.55;100850.84;5000927;28;20231;-74
2023/04/28 07:25:42;;;;;;;9.75;4.45;;;;;;;24.79;18.17;100844.50;5009840;28;20691;-73
2023/04/28 07:28:11;;;;;;;8.05;4.60;;;;;;;25.64;17.30;100837.69;5005097;28;20323;-72
2023/04/28 07:30:39;;;;;;;7.97;4.50;;;;;;;26.50;17.74;100838.41;5007725;28;20709;-74
2023/04/28 07:33:07;;;;;;;5.13;3.50;;;;;;;27.02;16.00;100842.03;5000159;28;20211;-71
2023/04/28 07:35:36;;;;;;;4.55;3.75;;;;;;;27.32;16.08;100837.34;5005807;28;20294;-71
2023/04/28 07:38:04;;;;;;;7.43;3.67;;;;;;;27.63;15.70;100829.88;5005527;28;20204;-73
2023/04/28 07:40:32;;;;;;;6.60;3.92;;;;;;;27.88;15.29;100829.88;5005305;28;20242;-72
2023/04/28 07:43:02;;;;;;;5.85;4.00;;;;;;;28.02;14.45;100823.59;5009541;28;20203;-72
2023/04/28 07:45:31;;;;;;;5.03;3.30;;;;;;;28.18;14.05;100820.66;5001278;28;20203;-72
2023/04/28 07:47:59;;;;;;;6.32;3.88;;;;;;;27.95;14.17;100827.63;5008514;28;20203;-72
2023/04/28 07:50:27;;;;;;;5.35;2.85;;;;;;;27.41;14.06;100823.44;5003359;28;20238;-72
2023/04/28 07:52:56;;;;;;;4.50;2.25;;;;;;;26.20;14.34;100826.22;5008456;28;20706;-70
2023/04/28 07:55:25;;;;;;;3.70;2.13;;;;;;;25.20;15.37;100818.34;5002393;28;20231;-71
2023/04/28 07:57:54;;;;;;;2.75;2.25;;;;;;;23.61;16.08;100833.44;5009861;28;20577;-72
2023/04/28 08:00:23;;;;;;;4.70;2.63;;;;;;;21.74;17.74;100825.13;5005747;28;20222;-74
2023/04/28 08:02:51;;;;;;;2.72;1.80;;;;;;;20.01;18.88;100826.16;5005346;28;20277;-73
2023/04/28 08:05:19;;;;;;;6.00;2.30;;;;;;;19.93;20.03;100829.97;5005044;28;20199;-74
2023/04/28 08:07:48;;;;;;;2.00;1.80;;;;;;;20.91;19.47;100823.47;5005928;28;20582;-75
2023/04/28 08:10:17;;;;;;;1.58;1.48;;;;;;;21.75;17.17;100826.81;4998397;28;20212;-72
2023/04/28 08:12:45;;;;;;;3.72;1.70;;;;;;;20.97;17.32;100818.81;5008562;28;20207;-74
2023/04/28 08:15:13;;;;;;;4.43;3.20;;;;;;;19.74;18.74;100821.97;5005547;28;20211;-74
2023/04/28 08:17:45;;;;;;;2.53;1.90;;;;;;;18.29;20.52;100822.47;5006432;28;20212;-76
2023/04/28 08:20:14;;;;;;;3.30;1.90;;;;;;;17.19;22.42;100838.63;5004927;28;20242;-73
2023/04/28 08:22:42;;;;;;;3.50;2.08;;;;;;;16.44;23.42;100833.47;5000423;28;20207;-73
2023/04/28 08:25:11;;;;;;;1.80;1.63;;;;;;;15.85;23.18;100839.09;5008616;28;20594;-73
2023/04/28 08:27:40;;;;;;;2.92;1.63;;;;;;;15.68;23.71;100839.47;5004602;28;20291;-73
2023/04/28 08:30:09;;;;;;;3.03;1.67;;;;;;;16.22;23.48;100840.06;5012579;28;20204;-73
2023/04/28 08:32:37;;;;;;;3.83;1.85;;;;;;;17.07;22.38;100829.38;5012091;28;20314;-70
2023/04/28 08:35:08;;;;;;;1.17;1.08;;;;;;;17.61;20.47;100829.66;5012693;28;20215;-71
2023/04/28 08:37:36;;;;;;;2.85;1.40;;;;;;;18.03;20.23;100812.81;5011019;28;20569;-72
2023/04/28 08:40:08;;;;;;;3.33;1.80;;;;;;;17.94;20.27;100823.56;5014232;28;20672;-73
2023/04/28 08:42:38;;;;;;;2.90;1.60;;;;;;;17.65;20.28;100817.38;5011014;28;20211;-72
2023/04/28 08:45:08;;;;;;;3.55;2.10;;;;;;;17.16;20.94;100818.75;5009859;28;20622;-73
2023/04/28 08:47:40;;;;;;;5.13;1.60;;;;;;;16.74;22.10;100818.91;5010853;28;20218;-74
2023/04/28 08:50:12;;;;;;;1.70;1.60;;;;;;;16.54;21.91;100821.13;5011303;28;20207;-74
2023/04/28 08:52:44;;;;;;;3.28;1.60;;;;;;;16.57;21.99;100814.09;5012534;28;20215;-74
2023/04/28 08:55:14;;;;;;;3.60;1.65;;;;;;;16.81;22.26;100823.06;5008067;28;20721;-75
2023/04/28 08:57:44;;;;;;;2.90;1.77;;;;;;;16.78;20.76;100817.09;5011125;28;20246;-76
2023/04/28 09:00:13;;;;;;;3.53;1.98;;;;;;;16.50;22.05;100809.09;5008491;28;20210;-76
2023/04/28 09:02:41;;;;;;;3.15;2.30;;;;;;;16.29;22.72;100803.47;5005621;28;20214;-76
2023/04/28 09:05:12;;;;;;;3.80;2.25;;;;;;;16.53;22.99;100798.59;5004509;28;20690;-69
2023/04/28 09:07:41;;;;;;;2.92;2.10;;;;;;;16.90;22.34;100801.19;5003440;28;20211;-71
2023/04/28 09:10:17;;;;;;;4.15;2.17;;;;;;;17.42;22.46;100799.78;5012629;28;20223;-77
2023/04/28 09:12:45;;;;;;;5.20;2.13;;;;;;;18.25;21.40;100793.00;5010446;28;20290;-78
2023/04/28 09:15:29;;;;;;;3.33;2.22;;;;;;;19.32;20.13;100796.44;5016216;28;20211;-76
2023/04/28 09:18:01;;;;;;;3.05;2.00;;;;;;;20.54;19.00;100783.06;5006221;28;20313;-78
2023/04/28 09:20:32;;;;;;;5.63;2.50;;;;;;;21.21;18.49;100782.84;5012882;28;20234;-77
2023/04/28 09:23:15;;;;;;;3.38;2.22;;;;;;;21.82;18.35;100787.13;5000628;28;20214;-71
2023/04/28 09:26:03;;;;;;;4.57;2.15;;;;;;;21.93;17.96;100778.75;5007144;28;20203;-73
2023/04/28 09:28:32;;;;;;;5.47;2.20;;;;;;;21.45;17.83;100780.09;4999464;28;20214;-73
2023/04/28 09:31:00;;;;;;;2.90;2.20;;;;;;;20.19;18.38;100785.34;5003909;28;20239;-72
2023/04/28 09:33:28;;;;;;;4.78;2.35;;;;;;;18.77;20.08;100782.66;5009955;28;20229;-72
2023/04/28 09:36:00;;;;;;;4.57;2.53;;;;;;;17.34;21.22;100781.78;5009443;28;20219;-73
2023/04/28 09:38:28;;;;;;;3.63;2.78;;;;;;;16.19;22.95;100791.56;5007799;28;20211;-74
2023/04/28 09:40:59;;;;;;;3.83;2.10;;;;;;;16.15;24.09;100784.72;5006865;28;20647;-73
2023/04/28 09:43:29;;;;;;;5.43;2.35;;;;;;;17.24;23.18;100785.53;5011394;28;20669;-74
2023/04/28 09:45:59;;;;;;;4.57;2.38;;;;;;;17.76;21.80;100785.84;5011426;28;20211;-73
2023/04/28 09:48:29;;;;;;;3.15;2.47;;;;;;;18.06;21.51;100777.06;5005635;28;20207;-73
2023/04/28 09:50:58;;;;;;;2.92;2.22;;;;;;;17.65;21.79;100770.47;5010678;28;20217;-73
2023/04/28 09:53:28;;;;;;;3.55;2.22;;;;;;;17.14;22.75;100773.63;5006862;28;20274;-72
2023/04/28 09:55:58;;;;;;;3.15;2.60;;;;;;;16.83;22.62;100768.41;5007155;28;20215;-74
2023/04/28 09:58:27;;;;;;;8.02;2.25;;;;;;;16.14;23.18;100775.22;5010434;28;20222;-74
2023/04/28 10:00:58;;;;;;;6.03;2.55;;;;;;;15.65;23.96;100771.06;5009675;28;20282;-74
2023/04/28 10:03:27;;;;;;;4.35;2.20;;;;;;;15.35;24.86;100768.19;5003025;28;20230;-68
2023/04/28 10:05:57;;;;;;;3.97;2.60;;;;;;;15.54;27.97;100770.41;5003449;28;20203;-72
2023/04/28 10:08:28;;;;;;;4.50;2.55;;;;;;;15.53;27.77;100759.19;5006245;28;20282;-72
2023/04/28 10:10:56;;;;;;;4.50;2.58;;;;;;;15.56;28.20;100760.88;5007168;28;20203;-72
2023/04/28 10:13:25;;;;;;;5.40;2.65;;;;;;;15.83;27.28;100751.66;5008895;28;20285;-71
2023/04/28 10:15:54;;;;;;;3.53;2.55;;;;;;;16.58;26.67;100742.09;5004053;28;20219;-71
2023/04/28 10:18:24;;;;;;;3.83;2.30;;;;;;;18.61;24.51;100740.53;5000565;28;20230;-72
2023/04/28 10:20:58;;;;;;;4.25;2.25;;;;;;;21.03;21.57;100731.25;5001935;28;20722;-73
2023/04/28 10:23:58;;;;;;;7.07;2.80;;;;;;;22.87;19.87;100712.00;5002546;28;20234;-72
2023/04/28 10:26:52;;;;;;;4.30;2.60;;;;;;;23.77;17.17;100709.78;5003533;28;20207;-75
2023/04/28 10:29:24;;;;;;;4.88;2.60;;;;;;;22.31;17.82;100719.19;5004913;28;20199;-74
2023/04/28 10:32:17;;;;;;;2.78;2.13;;;;;;;20.63;18.96;100722.50;5008485;28;20219;-73
2023/04/28 10:34:46;;;;;;;5.57;2.28;;;;;;;19.91;20.46;100721.91;5010003;28;20270;-74
2023/04/28 10:37:16;;;;;;;4.07;2.45;;;;;;;19.81;20.02;100721.44;5012012;28;20635;-73
2023/04/28 10:40:21;;;;;;;4.30;2.40;;;;;;;19.64;20.99;100714.25;4997945;28;20662;-73
2023/04/28 10:42:56;;;;;;;3.40;2.00;;;;;;;21.22;19.66;100711.16;5006795;28;20199;-74
2023/04/28 10:46:03;;;;;;;3.42;2.05;;;;;;;22.66;18.53;100712.16;5008875;28;20733;-75
2023/04/28 10:48:56;;;;;;;4.50;2.30;;;;;;;22.76;18.00;100702.03;5003603;28;20728;-74
2023/04/28 10:51:32;;;;;;;4.75;2.47;;;;;;;22.04;17.98;100696.88;4998023;28;20203;-72
2023/04/28 10:54:18;;;;;;;2.97;2.05;;;;;;;20.37;18.72;100704.38;5001610;28;20237;-70
2023/04/28 10:57:16;;;;;;;3.60;1.95;;;;;;;19.52;19.97;100701.63;5012031;28;20222;-70
2023/04/28 10:59:45;;;;;;;6.22;2.40;;;;;;;20.22;19.55;100703.25;5006935;28;20300;-74
2023/04/28 11:02:38;;;;;;;3.47;2.20;;;;;;;20.39;19.77;100697.28;5009880;28;20199;-73
2023/04/28 11:05:17;;;;;;;4.57;2.47;;;;;;;21.28;18.55;100691.66;5006672;28;20654;-71
2023/04/28 11:08:22;;;;;;;7.70;2.85;;;;;;;21.20;18.31;100689.41;5007171;28;20202;-73
2023/04/28 11:11:17;;;;;;;4.60;2.53;;;;;;;20.61;19.51;100694.66;4999675;28;20269;-71
2023/04/28 11:13:46;;;;;;;5.32;2.28;;;;;;;21.20;19.31;100686.78;5007467;28;20210;-71
2023/04/28 11:16:18;;;;;;;3.72;2.10;;;;;;;22.05;18.62;100682.84;5009457;28;20235;-71
2023/04/28 11:18:51;;;;;;;3.35;1.92;;;;;;;21.62;18.13;100677.91;5009786;28;20550;-73
2023/04/28 11:21:24;;;;;;;3.72;2.30;;;;;;;21.94;18.42;100676.34;5011492;28;20592;-72
2023/04/28 11:23:52;;;;;;;5.15;2.45;;;;;;;22.29;17.89;100662.44;5011068;28;20289;-74
2023/04/28 11:26:22;;;;;;;3.40;2.33;;;;;;;22.44;17.71;100666.91;5011267;28;20685;-72
2023/04/28 11:28:52;;;;;;;5.50;2.20;;;;;;;22.29;18.03;100659.81;5011192;28;20199;-73
2023/04/28 11:31:24;;;;;;;4.63;2.40;;;;;;;22.14;18.69;100662.28;5011443;28;20203;-73